createdAt,value
2018-03-21T00:00:22.780Z,16.08
2018-03-21T00:02:52.515Z,16.12
2018-03-21T00:05:22.258Z,17.42
2018-03-21T00:07:52.006Z,16.10
2018-03-21T00:10:21.729Z,16.67
2018-03-21T00:12:51.462Z,16.70
2018-03-21T00:15:21.228Z,16.75
2018-03-21T00:17:51.135Z,16.20
2018-03-21T00:20:20.873Z,14.23
2018-03-21T00:22:50.601Z,15.25
2018-03-21T00:25:20.352Z,14.93
2018-03-21T00:27:50.086Z,14.55
2018-03-21T00:30:19.822Z,14.50
2018-03-21T00:32:49.542Z,15.10
2018-03-21T00:35:19.253Z,14.98
2018-03-21T00:37:48.983Z,14.43
2018-03-21T00:40:18.710Z,12.77
2018-03-21T00:42:48.444Z,12.65
2018-03-21T00:45:18.350Z,11.38
2018-03-21T00:47:48.084Z,15.07
2018-03-21T00:50:17.830Z,10.98
2018-03-21T00:52:47.561Z,12.30
2018-03-21T00:55:17.334Z,10.60
2018-03-21T00:57:47.197Z,14.02
2018-03-21T01:00:16.913Z,11.85
2018-03-21T01:02:46.618Z,10.38
2018-03-21T01:05:16.378Z,12.52
2018-03-21T01:07:46.095Z,16.80
2018-03-21T01:10:15.791Z,10.98
2018-03-21T01:12:45.494Z,11.85
2018-03-21T01:15:15.221Z,11.32
2018-03-21T01:17:44.933Z,12.55
2018-03-21T01:20:14.799Z,13.55
2018-03-21T01:22:44.599Z,14.10
2018-03-21T01:25:14.476Z,11.07
2018-03-21T01:27:44.230Z,10.77
2018-03-21T01:30:13.942Z,10.15
2018-03-21T01:32:43.656Z,13.35
2018-03-21T01:35:13.395Z,11.60
2018-03-21T01:37:42.968Z,11.82
2018-03-21T01:40:12.867Z,12.00
2018-03-21T01:42:42.390Z,11.50
2018-03-21T01:45:12.194Z,8.88
2018-03-21T01:47:41.961Z,10.40
2018-03-21T01:50:11.676Z,10.70
2018-03-21T01:52:41.390Z,10.50
2018-03-21T01:55:11.112Z,10.80
2018-03-21T01:57:40.958Z,13.95
2018-03-21T02:00:10.657Z,11.75
2018-03-21T02:02:40.379Z,10.45
2018-03-21T02:05:10.174Z,10.25
2018-03-21T02:07:40.102Z,11.50
2018-03-21T02:10:09.802Z,10.57
2018-03-21T02:12:39.514Z,12.00
2018-03-21T02:15:09.233Z,12.93
2018-03-21T02:17:38.961Z,10.93
2018-03-21T02:20:08.663Z,9.88
2018-03-21T02:22:38.370Z,13.13
2018-03-21T02:25:08.243Z,12.43
2018-03-21T02:27:38.069Z,13.05
2018-03-21T02:30:07.453Z,11.25
2018-03-21T02:32:37.214Z,10.35
2018-03-21T02:35:06.922Z,11.77
2018-03-21T02:37:36.650Z,12.43
2018-03-21T02:40:06.518Z,12.68
2018-03-21T02:42:36.222Z,14.48
2018-03-21T02:45:05.970Z,8.65
2018-03-21T02:47:35.678Z,10.52
2018-03-21T02:50:05.402Z,12.80
2018-03-21T02:52:35.301Z,10.27
2018-03-21T02:55:05.139Z,9.93
2018-03-21T02:57:34.720Z,9.73
2018-03-21T03:00:04.145Z,11.35
2018-03-21T03:02:33.891Z,10.77
2018-03-21T03:05:03.599Z,9.73
2018-03-21T03:07:33.482Z,10.85
2018-03-21T03:10:03.246Z,12.27
2018-03-21T03:12:32.978Z,8.25
2018-03-21T03:15:02.670Z,9.02
2018-03-21T03:17:32.414Z,10.40
2018-03-21T03:20:02.114Z,8.52
2018-03-21T03:22:31.838Z,12.70
2018-03-21T03:25:01.597Z,12.02
2018-03-21T03:27:31.356Z,10.90
2018-03-21T03:30:01.076Z,15.00
2018-03-21T03:32:30.853Z,12.60
2018-03-21T03:35:00.554Z,11.20
2018-03-21T03:37:30.326Z,13.30
2018-03-21T03:40:00.050Z,11.43
2018-03-21T03:42:29.780Z,11.00
2018-03-21T03:44:59.579Z,9.70
2018-03-21T03:47:29.457Z,9.40
2018-03-21T03:49:59.174Z,10.95
2018-03-21T03:52:28.891Z,10.88
2018-03-21T03:54:58.602Z,9.57
2018-03-21T03:57:28.303Z,11.15
2018-03-21T03:59:58.013Z,11.07
2018-03-21T04:02:27.854Z,18.17
2018-03-21T04:04:57.613Z,11.63
2018-03-21T04:07:27.343Z,9.23
2018-03-21T04:09:57.068Z,11.25
2018-03-21T04:12:26.796Z,16.60
2018-03-21T04:14:56.511Z,12.20
2018-03-21T04:17:26.428Z,11.20
2018-03-21T04:19:55.938Z,12.73
2018-03-21T04:22:25.537Z,11.45
2018-03-21T04:24:55.250Z,11.73
2018-03-21T04:27:24.971Z,10.80
2018-03-21T04:29:54.678Z,12.25
2018-03-21T04:32:24.405Z,10.18
2018-03-21T04:34:54.121Z,14.60
2018-03-21T04:37:23.666Z,9.85
2018-03-21T04:39:53.398Z,12.90
2018-03-21T04:42:23.104Z,12.25
2018-03-21T04:44:52.846Z,12.43
2018-03-21T04:47:22.453Z,13.88
2018-03-21T04:49:51.994Z,16.37
2018-03-21T04:52:21.773Z,17.80
2018-03-21T04:54:51.494Z,15.40
2018-03-21T04:57:21.020Z,14.70
2018-03-21T04:59:50.737Z,15.85
2018-03-21T05:02:20.250Z,17.60
2018-03-21T05:04:49.789Z,11.45
2018-03-21T05:07:19.518Z,17.25
2018-03-21T05:09:49.230Z,13.93
2018-03-21T05:12:18.962Z,11.60
2018-03-21T05:14:48.653Z,11.68
2018-03-21T05:17:18.408Z,13.85
2018-03-21T05:19:48.114Z,14.32
2018-03-21T05:22:17.849Z,16.90
2018-03-21T05:24:47.564Z,16.62
2018-03-21T05:27:17.330Z,11.68
2018-03-21T05:29:47.043Z,14.00
2018-03-21T05:32:16.765Z,15.70
2018-03-21T05:34:46.624Z,14.45
2018-03-21T05:37:16.431Z,14.30
2018-03-21T05:39:46.208Z,15.68
2018-03-21T05:42:15.947Z,14.63
2018-03-21T05:44:45.683Z,14.80
2018-03-21T05:47:15.424Z,15.55
2018-03-21T05:49:45.162Z,18.02
2018-03-21T05:52:14.873Z,18.27
2018-03-21T05:54:44.636Z,15.80
2018-03-21T05:57:14.467Z,16.40
2018-03-21T05:59:44.220Z,18.15
2018-03-21T06:02:13.975Z,15.57
2018-03-21T06:04:43.790Z,17.92
2018-03-21T06:07:13.599Z,15.75
2018-03-21T06:09:43.315Z,21.60
2018-03-21T06:12:13.057Z,18.25
2018-03-21T06:14:42.778Z,21.67
2018-03-21T06:17:12.514Z,17.42
2018-03-21T06:19:42.280Z,18.55
2018-03-21T06:22:12.015Z,15.60
2018-03-21T06:24:41.785Z,19.70
2018-03-21T06:27:11.702Z,17.92
2018-03-21T06:29:41.641Z,18.48
2018-03-21T06:32:11.371Z,16.33
2018-03-21T06:34:41.086Z,18.83
2018-03-21T06:37:10.838Z,18.08
2018-03-21T06:39:40.739Z,21.48
2018-03-21T06:42:10.585Z,20.75
2018-03-21T06:44:40.366Z,18.87
2018-03-21T06:47:10.302Z,17.40
2018-03-21T06:49:40.029Z,16.33
2018-03-21T06:52:09.582Z,16.87
2018-03-21T06:54:39.322Z,21.48
2018-03-21T06:57:09.045Z,16.73
2018-03-21T06:59:38.774Z,13.80
2018-03-21T07:02:08.490Z,16.17
2018-03-21T07:04:38.234Z,17.33
2018-03-21T07:07:08.006Z,16.77
2018-03-21T07:09:37.918Z,16.25
2018-03-21T07:12:07.678Z,17.58
2018-03-21T07:14:42.890Z,19.50
2018-03-21T07:17:12.992Z,18.10
2018-03-21T07:19:42.909Z,22.33
2018-03-21T07:22:12.614Z,17.80
2018-03-21T07:24:42.166Z,19.48
2018-03-21T07:27:11.886Z,14.75
2018-03-21T07:29:41.652Z,22.62
2018-03-21T07:32:11.238Z,18.33
2018-03-21T07:34:41.166Z,14.98
2018-03-21T07:37:10.915Z,15.70
2018-03-21T07:39:40.653Z,20.92
2018-03-21T07:42:10.435Z,13.68
2018-03-21T07:44:40.170Z,16.98
2018-03-21T07:47:09.878Z,12.77
2018-03-21T07:49:39.771Z,15.20
2018-03-21T07:52:09.650Z,13.60
2018-03-21T07:54:39.366Z,13.65
2018-03-21T07:57:09.094Z,14.48
2018-03-21T07:59:39.010Z,14.27
2018-03-21T08:02:08.737Z,14.15
2018-03-21T08:04:38.462Z,15.20
2018-03-21T08:07:08.193Z,11.73
2018-03-21T08:09:37.898Z,11.48
2018-03-21T08:12:07.628Z,14.23
2018-03-21T08:14:37.335Z,11.25
2018-03-21T08:17:07.082Z,12.25
2018-03-21T08:19:36.961Z,6.62
2018-03-21T08:22:06.826Z,7.00
2018-03-21T08:24:36.538Z,7.32
2018-03-21T08:27:06.264Z,7.18
2018-03-21T08:29:36.179Z,5.07
2018-03-21T08:32:05.925Z,6.15
2018-03-21T08:34:35.801Z,7.43
2018-03-21T08:37:05.725Z,6.22
2018-03-21T08:39:35.514Z,7.68
2018-03-21T08:42:05.429Z,6.95
2018-03-21T08:44:35.145Z,7.30
2018-03-21T08:47:04.869Z,4.65
2018-03-21T08:49:34.582Z,6.82
2018-03-21T08:52:04.294Z,6.50
2018-03-21T08:54:34.006Z,6.90
2018-03-21T08:57:03.719Z,7.80
2018-03-21T08:59:33.430Z,9.75
2018-03-21T09:02:03.150Z,9.27
2018-03-21T09:04:32.859Z,10.43
2018-03-21T09:07:02.698Z,7.10
2018-03-21T09:09:32.565Z,13.62
2018-03-21T09:12:02.348Z,9.00
2018-03-21T09:14:32.048Z,29.63
2018-03-21T09:17:01.786Z,10.07
2018-03-21T09:19:31.487Z,8.93
2018-03-21T09:22:01.195Z,9.32
2018-03-21T09:24:30.905Z,6.87
2018-03-21T09:27:00.630Z,8.88
2018-03-21T09:29:30.338Z,9.05
2018-03-21T09:32:00.063Z,6.60
2018-03-21T09:34:29.986Z,6.37
2018-03-21T09:36:59.703Z,11.35
2018-03-21T09:39:29.432Z,7.55
2018-03-21T09:41:59.150Z,11.27
2018-03-21T09:44:28.871Z,12.35
2018-03-21T09:46:58.586Z,7.35
2018-03-21T09:49:28.150Z,4.87
2018-03-21T09:51:57.855Z,4.75
2018-03-21T09:54:27.390Z,4.75
2018-03-21T09:56:57.302Z,6.40
2018-03-21T09:59:27.028Z,4.78
2018-03-21T10:01:56.774Z,5.22
2018-03-21T10:04:26.501Z,4.40
2018-03-21T10:06:55.903Z,6.90
2018-03-21T10:09:25.770Z,6.85
2018-03-21T10:11:55.513Z,3.45
2018-03-21T10:14:25.264Z,5.78
2018-03-21T10:16:55.123Z,4.10
2018-03-21T10:19:24.838Z,3.60
2018-03-21T10:21:54.563Z,5.50
2018-03-21T10:24:24.326Z,5.47
2018-03-21T10:26:54.047Z,4.57
2018-03-21T10:29:23.822Z,6.00
2018-03-21T10:31:53.738Z,3.90
2018-03-21T10:34:23.470Z,3.25
2018-03-21T10:36:53.190Z,3.90
2018-03-21T10:39:22.911Z,3.75
2018-03-21T10:41:52.645Z,6.57
2018-03-21T10:44:22.198Z,5.22
2018-03-21T10:46:51.916Z,5.55
2018-03-21T10:49:21.714Z,9.05
2018-03-21T10:51:51.478Z,4.82
2018-03-21T10:54:21.194Z,3.20
2018-03-21T10:56:50.901Z,3.17
2018-03-21T10:59:20.633Z,2.97
2018-03-21T11:01:56.011Z,3.40
2018-03-21T11:04:25.738Z,2.83
2018-03-21T11:06:55.450Z,2.40
2018-03-21T11:09:25.364Z,5.57
2018-03-21T11:11:55.180Z,3.30
2018-03-21T11:14:25.111Z,3.08
2018-03-21T11:16:54.872Z,3.05
2018-03-21T11:19:24.719Z,5.30
2018-03-21T11:21:54.428Z,4.32
2018-03-21T11:24:24.258Z,7.18
2018-03-21T11:26:53.986Z,5.68
2018-03-21T11:29:23.721Z,4.37
2018-03-21T11:31:53.602Z,5.30
2018-03-21T11:34:23.362Z,3.60
2018-03-21T11:36:53.210Z,4.62
2018-03-21T11:39:23.088Z,4.22
2018-03-21T11:41:52.911Z,8.10
2018-03-21T11:44:22.762Z,6.15
2018-03-21T11:46:52.465Z,4.78
2018-03-21T11:49:22.207Z,4.55
2018-03-21T11:51:51.918Z,3.37
2018-03-21T11:54:21.650Z,4.60
2018-03-21T11:56:51.350Z,4.85
2018-03-21T11:59:21.090Z,4.78
2018-03-21T12:01:50.793Z,3.50
2018-03-21T12:04:20.718Z,2.90
2018-03-21T12:06:50.430Z,3.12
2018-03-21T12:09:20.166Z,2.92
2018-03-21T12:11:49.598Z,6.53
2018-03-21T12:14:19.038Z,4.97
2018-03-21T12:16:48.796Z,5.90
2018-03-21T12:19:18.945Z,7.57
2018-03-21T12:21:48.666Z,4.22
2018-03-21T12:24:18.258Z,6.87
2018-03-21T12:26:48.165Z,3.50
2018-03-21T12:29:17.682Z,5.17
2018-03-21T12:31:47.485Z,5.20
2018-03-21T12:34:17.367Z,5.15
2018-03-21T12:36:47.222Z,5.10
2018-03-21T12:39:16.933Z,4.10
2018-03-21T12:41:46.650Z,3.50
2018-03-21T12:44:16.373Z,4.62
2018-03-21T12:46:45.814Z,4.50
2018-03-21T12:49:15.348Z,5.00
2018-03-21T12:51:44.875Z,4.17
2018-03-21T12:54:14.474Z,5.30
2018-03-21T12:56:43.927Z,5.83
2018-03-21T12:59:13.383Z,5.00
2018-03-21T13:01:42.817Z,4.90
2018-03-21T13:04:12.331Z,5.13
2018-03-21T13:06:42.179Z,8.13
2018-03-21T13:09:11.931Z,3.65
2018-03-21T13:11:41.738Z,4.05
2018-03-21T13:14:11.551Z,6.55
2018-03-21T13:16:41.000Z,5.33
2018-03-21T13:19:10.523Z,5.00
2018-03-21T13:21:39.978Z,5.17
2018-03-21T13:24:09.425Z,7.73
2018-03-21T13:26:38.877Z,5.10
2018-03-21T13:29:08.372Z,5.27
2018-03-21T13:31:37.830Z,5.97
2018-03-21T13:34:07.314Z,4.73
2018-03-21T13:36:36.770Z,4.20
2018-03-21T13:39:06.301Z,4.07
2018-03-21T13:41:35.770Z,6.17
2018-03-21T13:44:05.213Z,4.47
2018-03-21T13:46:34.663Z,4.60
2018-03-21T13:49:03.915Z,4.30
2018-03-21T13:51:33.369Z,5.37
2018-03-21T13:54:02.950Z,6.87
2018-03-21T13:56:32.427Z,5.13
2018-03-21T13:59:01.858Z,4.33
2018-03-21T14:01:31.318Z,4.57
2018-03-21T14:04:00.766Z,3.63
2018-03-21T14:06:30.219Z,4.20
2018-03-21T14:09:01.304Z,3.80
2018-03-21T14:11:30.772Z,4.17
2018-03-21T14:14:00.193Z,4.20
2018-03-21T14:16:29.682Z,3.57
2018-03-21T14:18:59.564Z,4.00
2018-03-21T14:21:29.012Z,4.17
2018-03-21T14:23:58.562Z,4.33
2018-03-21T14:26:27.990Z,6.50
2018-03-21T14:28:57.580Z,4.20
2018-03-21T14:31:27.025Z,3.60
2018-03-21T14:33:56.747Z,3.60
2018-03-21T14:36:26.190Z,3.50
2018-03-21T14:38:55.712Z,3.50
2018-03-21T14:41:25.139Z,7.93
2018-03-21T14:43:54.601Z,4.07
2018-03-21T14:46:24.112Z,3.77
2018-03-21T14:48:53.563Z,3.10
2018-03-21T14:51:22.990Z,4.40
2018-03-21T14:53:52.430Z,3.97
2018-03-21T14:56:21.870Z,3.97
2018-03-21T14:58:51.371Z,3.00
2018-03-21T15:01:20.826Z,4.63
2018-03-21T15:03:50.147Z,3.27
2018-03-21T15:06:19.866Z,3.10
2018-03-21T15:08:49.314Z,2.77
2018-03-21T15:11:18.761Z,4.20
2018-03-21T15:13:48.211Z,2.50
2018-03-21T15:16:17.675Z,3.30
2018-03-21T15:18:47.119Z,3.63
2018-03-21T15:21:17.228Z,2.80
2018-03-21T15:23:46.435Z,3.13
2018-03-21T15:26:15.284Z,3.40
2018-03-21T15:28:44.710Z,3.67
2018-03-21T15:31:14.164Z,3.47
2018-03-21T15:33:43.590Z,2.33
2018-03-21T15:36:13.030Z,2.97
2018-03-21T15:38:42.485Z,3.60
2018-03-21T15:41:11.938Z,3.27
2018-03-21T15:43:41.385Z,2.70
2018-03-21T15:46:10.822Z,2.73
2018-03-21T15:48:40.311Z,3.27
2018-03-21T15:51:09.821Z,3.47
2018-03-21T15:53:39.410Z,2.60
2018-03-21T15:56:08.859Z,4.77
2018-03-21T15:58:38.487Z,2.40
2018-03-21T16:01:07.948Z,3.00
2018-03-21T16:03:37.225Z,3.03
2018-03-21T16:06:06.701Z,4.60
2018-03-21T16:08:36.254Z,2.57
2018-03-21T16:11:05.713Z,4.83
2018-03-21T16:13:35.148Z,3.20
2018-03-21T16:16:04.592Z,2.67
2018-03-21T16:18:34.087Z,4.10
2018-03-21T16:21:03.546Z,2.57
2018-03-21T16:23:32.983Z,4.27
2018-03-21T16:26:02.435Z,2.40
2018-03-21T16:28:31.924Z,3.37
2018-03-21T16:31:01.184Z,3.67
2018-03-21T16:33:30.682Z,2.80
2018-03-21T16:36:00.264Z,3.30
2018-03-21T16:38:29.870Z,2.70
2018-03-21T16:40:59.384Z,2.87
2018-03-21T16:43:29.110Z,2.78
2018-03-21T16:45:58.912Z,3.42
2018-03-21T16:48:28.375Z,3.20
2018-03-21T16:50:58.206Z,6.87
2018-03-21T16:53:27.978Z,2.60
2018-03-21T16:55:57.698Z,5.05
2018-03-21T16:58:27.434Z,2.95
2018-03-21T17:00:57.175Z,4.35
2018-03-21T17:03:26.894Z,3.17
2018-03-21T17:05:56.624Z,2.55
2018-03-21T17:08:26.341Z,2.87
2018-03-21T17:10:56.083Z,2.00
2018-03-21T17:13:25.794Z,2.20
2018-03-21T17:15:55.202Z,1.60
2018-03-21T17:18:24.902Z,2.12
2018-03-21T17:20:54.699Z,2.15
2018-03-21T17:23:24.621Z,2.75
2018-03-21T17:25:54.442Z,7.50
2018-03-21T17:28:24.175Z,7.95
2018-03-21T17:30:53.978Z,3.92
2018-03-21T17:33:23.702Z,4.57
2018-03-21T17:35:53.447Z,6.12
2018-03-21T17:38:23.177Z,4.55
2018-03-21T17:40:52.922Z,8.00
2018-03-21T17:43:22.630Z,9.93
2018-03-21T17:45:52.490Z,5.15
2018-03-21T17:48:22.222Z,6.70
2018-03-21T17:50:51.960Z,8.50
2018-03-21T17:53:21.702Z,11.25
2018-03-21T17:55:51.431Z,12.18
2018-03-21T17:58:21.150Z,12.10
2018-03-21T18:00:50.873Z,14.75
2018-03-21T18:03:20.655Z,13.30
2018-03-21T18:05:50.472Z,11.68
2018-03-21T18:08:20.202Z,9.20
2018-03-21T18:10:49.915Z,6.03
2018-03-21T18:13:19.700Z,6.18
2018-03-21T18:15:49.404Z,3.40
2018-03-21T18:18:19.344Z,3.87
2018-03-21T18:20:49.047Z,5.05
2018-03-21T18:23:18.955Z,6.20
2018-03-21T18:25:48.498Z,5.93
2018-03-21T18:28:18.252Z,6.82
2018-03-21T18:30:47.982Z,10.77
2018-03-21T18:33:17.946Z,10.20
2018-03-21T18:35:47.714Z,10.60
2018-03-21T18:38:17.454Z,6.18
2018-03-21T18:40:47.223Z,9.32
2018-03-21T18:43:16.939Z,4.25
2018-03-21T18:45:46.665Z,3.30
2018-03-21T18:48:16.379Z,2.60
2018-03-21T18:50:46.149Z,3.62
2018-03-21T18:53:15.854Z,3.42
2018-03-21T18:55:45.604Z,4.53
2018-03-21T18:58:15.328Z,2.80
2018-03-21T19:00:45.065Z,2.55
2018-03-21T19:03:14.779Z,5.40
2018-03-21T19:05:44.717Z,6.95
2018-03-21T19:08:14.425Z,6.60
2018-03-21T19:10:44.159Z,4.55
2018-03-21T19:15:43.802Z,3.58
2018-03-21T19:18:13.758Z,5.53
2018-03-21T19:20:43.553Z,4.95
2018-03-21T19:23:13.317Z,4.53
2018-03-21T19:25:43.276Z,3.50
2018-03-21T19:28:13.009Z,6.90
2018-03-21T19:30:42.735Z,7.57
2018-03-21T19:33:12.480Z,7.10
2018-03-21T19:35:42.216Z,3.78
2018-03-21T19:38:11.975Z,6.50
2018-03-21T19:40:41.699Z,5.75
2018-03-21T19:43:11.266Z,7.15
2018-03-21T19:45:41.151Z,4.05
2018-03-21T19:48:10.993Z,7.60
2018-03-21T19:50:40.715Z,8.95
2018-03-21T19:53:10.458Z,8.10
2018-03-21T19:55:40.179Z,7.95
2018-03-21T19:58:10.032Z,4.62
2018-03-21T20:00:39.800Z,4.20
2018-03-21T20:03:09.587Z,10.60
2018-03-21T20:05:39.431Z,5.18
2018-03-21T20:08:09.337Z,8.27
2018-03-21T20:10:39.078Z,9.00
2018-03-21T20:13:08.834Z,6.30
2018-03-21T20:15:38.541Z,4.03
2018-03-21T20:18:08.319Z,7.12
2018-03-21T20:20:38.243Z,3.75
2018-03-21T20:23:07.967Z,3.95
2018-03-21T20:25:37.704Z,4.87
2018-03-21T20:28:07.437Z,6.53
2018-03-21T20:30:37.177Z,5.78
2018-03-21T20:33:06.886Z,5.20
2018-03-21T20:35:36.873Z,6.40
2018-03-21T20:38:06.595Z,9.32
2018-03-21T20:40:36.410Z,5.10
2018-03-21T20:43:06.127Z,8.05
2018-03-21T20:45:35.859Z,7.20
2018-03-21T20:48:05.584Z,7.68
2018-03-21T20:50:35.426Z,8.77
2018-03-21T20:53:05.157Z,11.70
2018-03-21T20:55:34.890Z,10.13
2018-03-21T20:58:04.647Z,6.60
2018-03-21T21:00:34.174Z,9.77
2018-03-21T21:03:03.902Z,11.48
2018-03-21T21:05:33.618Z,5.95
2018-03-21T21:08:03.339Z,6.50
2018-03-21T21:10:33.038Z,8.82
2018-03-21T21:13:02.966Z,6.32
2018-03-21T21:15:32.835Z,7.78
2018-03-21T21:18:02.568Z,5.90
2018-03-21T21:20:32.270Z,5.32
2018-03-21T21:23:02.004Z,8.60
2018-03-21T21:25:31.738Z,6.22
2018-03-21T21:28:01.450Z,4.65
2018-03-21T21:30:31.399Z,9.30
2018-03-21T21:33:01.120Z,5.85
2018-03-21T21:35:30.846Z,5.65
2018-03-21T21:38:00.618Z,5.40
2018-03-21T21:40:30.397Z,11.63
2018-03-21T21:43:00.104Z,8.38
2018-03-21T21:45:29.834Z,6.85
2018-03-21T21:47:59.374Z,9.82
2018-03-21T21:50:29.099Z,5.95
2018-03-21T21:52:58.843Z,6.35
2018-03-21T21:55:28.573Z,8.43
2018-03-21T21:57:58.386Z,10.68
2018-03-21T22:00:28.102Z,6.72
2018-03-21T22:02:57.622Z,6.65
2018-03-21T22:05:27.357Z,8.40
2018-03-21T22:07:57.100Z,4.87
2018-03-21T22:10:26.906Z,5.55
2018-03-21T22:12:56.650Z,7.35
2018-03-21T22:15:26.354Z,8.95
2018-03-21T22:17:56.082Z,9.75
2018-03-21T22:20:25.825Z,7.40
2018-03-21T22:22:55.534Z,7.28
2018-03-21T22:25:25.258Z,12.35
2018-03-21T22:27:54.949Z,12.18
2018-03-21T22:30:24.661Z,13.32
2018-03-21T22:32:54.370Z,7.90
2018-03-21T22:35:24.091Z,7.40
2018-03-21T22:37:53.794Z,6.45
2018-03-21T22:40:23.350Z,11.25
2018-03-21T22:42:53.061Z,6.22
2018-03-21T22:45:22.775Z,7.75
2018-03-21T22:47:52.480Z,11.25
2018-03-21T22:50:22.181Z,10.73
2018-03-21T22:52:51.886Z,10.32
2018-03-21T22:55:21.606Z,7.60
2018-03-21T22:57:51.504Z,10.00
2018-03-21T23:00:21.207Z,6.45
2018-03-21T23:02:50.925Z,5.78
2018-03-21T23:05:20.645Z,8.77
2018-03-21T23:07:50.169Z,6.55
2018-03-21T23:10:19.881Z,7.57
2018-03-21T23:12:49.617Z,9.35
2018-03-21T23:15:19.486Z,10.15
2018-03-21T23:17:49.182Z,8.35
2018-03-21T23:20:18.922Z,5.40
2018-03-21T23:22:48.666Z,6.28
2018-03-21T23:25:18.398Z,5.10
2018-03-21T23:27:48.207Z,8.32
2018-03-21T23:30:17.934Z,6.05
2018-03-21T23:32:47.667Z,5.85
2018-03-21T23:35:17.398Z,8.07
2018-03-21T23:37:47.130Z,8.05
2018-03-21T23:40:17.090Z,9.95
2018-03-21T23:42:46.836Z,5.25
2018-03-21T23:45:16.555Z,8.23
2018-03-21T23:47:46.278Z,5.28
2018-03-21T23:50:16.054Z,5.95
2018-03-21T23:52:45.774Z,6.70
2018-03-21T23:55:15.471Z,7.72
2018-03-21T23:57:45.194Z,5.40
